createdAt,value
2022-09-07T00:01:25.783Z,24.80
2022-09-07T00:03:56.744Z,25.43
2022-09-07T00:06:26.251Z,26.97
2022-09-07T00:08:54.891Z,29.10
2022-09-07T00:11:23.573Z,32.77
2022-09-07T00:13:53.671Z,28.27
2022-09-07T00:16:25.497Z,28.57
2022-09-07T00:18:57.235Z,27.80
2022-09-07T00:21:26.231Z,30.00
2022-09-07T00:23:55.588Z,25.90
2022-09-07T00:26:26.017Z,23.57
2022-09-07T00:28:59.605Z,22.90
2022-09-07T00:31:29.161Z,28.70
2022-09-07T00:34:00.663Z,28.57
2022-09-07T00:36:30.182Z,21.97
2022-09-07T00:39:01.863Z,31.80
2022-09-07T00:41:30.625Z,31.43
2022-09-07T00:44:16.247Z,28.13
2022-09-07T00:46:45.340Z,32.37
2022-09-07T00:49:19.447Z,27.50
2022-09-07T00:51:53.214Z,31.43
2022-09-07T00:54:26.091Z,33.60
2022-09-07T00:56:55.891Z,38.87
2022-09-07T00:59:37.659Z,44.70
2022-09-07T01:02:07.003Z,35.70
2022-09-07T01:04:39.567Z,42.13
2022-09-07T01:07:09.359Z,35.90
2022-09-07T01:09:41.872Z,30.10
2022-09-07T01:12:16.207Z,29.90
2022-09-07T01:14:48.845Z,28.80
2022-09-07T01:17:25.393Z,29.87
2022-09-07T01:20:26.551Z,41.17
2022-09-07T01:23:24.165Z,31.80
2022-09-07T01:26:27.099Z,33.37
2022-09-07T01:29:05.090Z,27.93
2022-09-07T01:31:43.692Z,31.93
2022-09-07T01:34:24.647Z,29.10
2022-09-07T01:37:01.577Z,30.57
2022-09-07T01:39:36.468Z,30.37
2022-09-07T01:42:12.613Z,32.77
2022-09-07T01:44:49.069Z,32.00
2022-09-07T01:47:25.994Z,34.67
2022-09-07T01:50:00.442Z,37.83
2022-09-07T01:52:39.302Z,30.87
2022-09-07T01:55:16.595Z,40.00
2022-09-07T01:57:55.914Z,32.37
2022-09-07T02:00:27.045Z,41.03
2022-09-07T02:03:07.426Z,48.63
2022-09-07T02:05:43.260Z,30.47
2022-09-07T02:08:17.148Z,33.27
2022-09-07T02:10:50.589Z,30.80
2022-09-07T02:13:24.669Z,33.10
2022-09-07T02:16:08.756Z,43.90
2022-09-07T02:18:43.963Z,35.93
2022-09-07T02:21:17.485Z,40.53
2022-09-07T02:24:07.596Z,33.70
2022-09-07T02:26:41.554Z,33.83
2022-09-07T02:29:10.466Z,35.77
2022-09-07T02:31:49.109Z,27.73
2022-09-07T02:34:28.786Z,35.23
2022-09-07T02:37:03.426Z,35.23
2022-09-07T02:39:38.678Z,40.10
2022-09-07T02:42:26.717Z,28.27
2022-09-07T02:45:03.711Z,38.43
2022-09-07T02:47:52.265Z,38.00
2022-09-07T02:50:49.072Z,35.03
2022-09-07T02:53:45.526Z,49.57
2022-09-07T02:56:43.714Z,33.03
2022-09-07T02:59:44.362Z,33.67
2022-09-07T03:02:24.230Z,38.90
2022-09-07T03:05:15.894Z,35.73
2022-09-07T03:07:55.955Z,37.20
2022-09-07T03:10:51.540Z,32.37
2022-09-07T03:13:39.549Z,41.17
2022-09-07T03:16:35.282Z,32.17
2022-09-07T03:19:30.132Z,33.70
2022-09-07T03:22:13.345Z,35.53
2022-09-07T03:24:52.717Z,34.30
2022-09-07T03:27:33.741Z,39.80
2022-09-07T03:30:12.513Z,47.93
2022-09-07T03:32:48.335Z,38.90
2022-09-07T03:35:43.484Z,29.10
2022-09-07T03:38:19.721Z,31.07
2022-09-07T03:41:02.389Z,32.30
2022-09-07T03:43:40.661Z,34.90
2022-09-07T03:46:28.579Z,35.87
2022-09-07T03:48:59.928Z,28.47
2022-09-07T03:51:31.895Z,29.27
2022-09-07T03:54:17.799Z,36.73
2022-09-07T03:56:49.804Z,35.20
2022-09-07T03:59:21.616Z,44.03
2022-09-07T04:01:53.552Z,29.67
2022-09-07T04:04:24.474Z,39.67
2022-09-07T04:06:53.547Z,30.37
2022-09-07T04:09:24.087Z,30.27
2022-09-07T04:11:55.886Z,30.90
2022-09-07T04:14:24.834Z,33.60
2022-09-07T04:16:56.335Z,28.90
2022-09-07T04:19:28.577Z,30.67
2022-09-07T04:21:57.811Z,30.40
2022-09-07T04:24:34.232Z,27.03
2022-09-07T04:27:20.544Z,24.00
2022-09-07T04:29:56.620Z,31.90
2022-09-07T04:32:42.003Z,37.37
2022-09-07T04:35:16.342Z,30.67
2022-09-07T04:37:57.513Z,73.33
2022-09-07T04:40:32.265Z,33.93
2022-09-07T04:43:08.446Z,37.10
2022-09-07T04:45:51.737Z,34.20
2022-09-07T04:48:23.543Z,30.13
2022-09-07T04:50:55.218Z,32.37
2022-09-07T04:53:31.872Z,38.53
2022-09-07T04:56:03.748Z,39.80
2022-09-07T04:58:33.303Z,34.20
2022-09-07T05:01:06.801Z,36.83
2022-09-07T05:03:40.474Z,38.00
2022-09-07T05:06:12.781Z,36.13
2022-09-07T05:08:43.225Z,30.20
2022-09-07T05:11:14.949Z,33.00
2022-09-07T05:13:44.084Z,33.47
2022-09-07T05:16:14.547Z,30.23
2022-09-07T05:18:43.816Z,33.43
2022-09-07T05:21:14.489Z,26.70
2022-09-07T05:23:43.931Z,33.30
2022-09-07T05:26:14.676Z,25.93
2022-09-07T05:28:43.264Z,27.73
2022-09-07T05:36:38.925Z,26.03
2022-09-07T05:39:08.773Z,26.07
2022-09-07T05:41:38.851Z,24.70
2022-09-07T05:46:57.885Z,20.13
2022-09-07T05:49:26.516Z,18.87
2022-09-07T05:51:55.051Z,16.90
2022-09-07T05:54:23.584Z,18.67
2022-09-07T05:56:53.688Z,18.20
2022-09-07T05:59:22.335Z,17.73
2022-09-07T06:01:51.096Z,16.37
2022-09-07T06:04:19.923Z,17.13
2022-09-07T06:07:17.757Z,13.87
2022-09-07T06:12:28.115Z,14.47
2022-09-07T06:14:56.701Z,14.50
2022-09-07T06:17:25.480Z,19.57
2022-09-07T06:19:54.901Z,21.33
2022-09-07T06:22:25.817Z,21.60
2022-09-07T06:24:57.494Z,23.90
2022-09-07T06:27:27.399Z,22.27
2022-09-07T06:29:56.090Z,20.53
2022-09-07T06:35:09.466Z,18.10
2022-09-07T06:37:38.001Z,20.57
2022-09-07T06:40:07.719Z,19.00
2022-09-07T06:42:37.781Z,22.07
2022-09-07T06:45:07.251Z,19.93
2022-09-07T06:47:35.774Z,21.20
2022-09-07T06:50:04.380Z,24.63
2022-09-07T06:55:21.440Z,17.67
2022-09-07T06:57:54.402Z,21.30
2022-09-07T07:00:23.011Z,22.70
2022-09-07T07:02:54.008Z,24.73
2022-09-07T07:05:22.615Z,22.37
2022-09-07T07:07:51.171Z,22.00
2022-09-07T07:10:24.260Z,19.13
2022-09-07T07:12:57.989Z,23.50
2022-09-07T07:15:28.908Z,18.17
2022-09-07T07:18:02.644Z,17.93
2022-09-07T07:20:38.147Z,19.67
2022-09-07T07:23:06.885Z,17.37
2022-09-07T07:25:36.381Z,18.17
2022-09-07T07:30:57.280Z,19.10
2022-09-07T07:33:26.128Z,17.23
2022-09-07T07:35:54.932Z,22.37
2022-09-07T07:44:03.249Z,18.33
2022-09-07T07:46:32.381Z,21.67
2022-09-07T07:49:01.003Z,19.30
2022-09-07T07:51:29.775Z,19.60
2022-09-07T07:53:58.792Z,21.80
2022-09-07T07:56:27.705Z,19.63
2022-09-07T07:58:56.373Z,17.50
2022-09-07T08:01:26.497Z,15.37
2022-09-07T08:03:55.227Z,15.60
2022-09-07T08:06:24.229Z,16.40
2022-09-07T08:08:52.845Z,23.40
2022-09-07T08:11:23.854Z,18.90
2022-09-07T08:13:53.630Z,16.63
2022-09-07T08:16:22.964Z,18.47
2022-09-07T08:18:53.812Z,15.63
2022-09-07T08:21:22.409Z,13.93
2022-09-07T08:23:54.149Z,14.37
2022-09-07T08:26:22.832Z,13.60
2022-09-07T08:28:51.342Z,14.50
2022-09-07T08:31:20.188Z,14.83
2022-09-07T08:33:48.851Z,18.43
2022-09-07T08:36:20.904Z,15.50
2022-09-07T08:38:49.787Z,17.73
2022-09-07T08:41:37.997Z,14.50
2022-09-07T08:44:12.921Z,15.30
2022-09-07T08:46:46.873Z,12.93
2022-09-07T08:49:20.735Z,16.20
2022-09-07T08:51:56.020Z,14.70
2022-09-07T08:54:24.575Z,13.63
2022-09-07T08:59:55.016Z,49.43
2022-09-07T09:02:27.664Z,11.70
2022-09-07T09:07:56.238Z,16.43
2022-09-07T09:10:34.462Z,16.43
2022-09-07T09:13:10.988Z,48.57
2022-09-07T09:15:53.475Z,12.27
2022-09-07T09:18:37.858Z,15.03
2022-09-07T09:21:07.940Z,15.20
2022-09-07T09:23:41.762Z,13.40
2022-09-07T09:26:15.315Z,11.80
2022-09-07T09:28:43.887Z,11.10
2022-09-07T09:31:24.287Z,13.63
2022-09-07T09:34:14.471Z,10.60
2022-09-07T09:36:46.411Z,11.90
2022-09-07T09:39:29.851Z,14.17
2022-09-07T09:42:00.888Z,20.20
2022-09-07T09:44:35.092Z,15.63
2022-09-07T09:49:53.668Z,12.30
2022-09-07T09:52:34.810Z,12.50
2022-09-07T09:55:34.521Z,12.30
2022-09-07T10:04:04.643Z,11.97
2022-09-07T10:06:34.690Z,17.40
2022-09-07T10:09:03.974Z,11.87
2022-09-07T10:14:37.287Z,10.43
2022-09-07T10:17:20.562Z,9.47
2022-09-07T10:19:49.644Z,17.63
2022-09-07T10:22:33.980Z,10.20
2022-09-07T10:25:23.012Z,11.43
2022-09-07T10:28:04.114Z,19.90
2022-09-07T10:30:41.203Z,14.67
2022-09-07T10:33:18.029Z,14.70
2022-09-07T10:35:54.701Z,13.03
2022-09-07T10:38:25.008Z,17.80
2022-09-07T10:41:00.918Z,15.50
2022-09-07T10:43:43.428Z,11.87
2022-09-07T10:49:24.962Z,11.60
2022-09-07T10:52:03.675Z,12.00
2022-09-07T10:54:41.112Z,11.53
2022-09-07T10:57:29.029Z,11.33
2022-09-07T11:00:09.698Z,12.07
2022-09-07T11:03:26.068Z,15.70
2022-09-07T11:06:07.261Z,11.70
2022-09-07T11:12:03.636Z,10.67
2022-09-07T11:14:39.380Z,11.67
2022-09-07T11:17:16.648Z,17.43
2022-09-07T11:19:53.673Z,11.10
2022-09-07T11:22:33.522Z,13.43
2022-09-07T11:28:03.634Z,16.03
2022-09-07T11:30:35.805Z,11.30
2022-09-07T11:33:16.545Z,17.30
2022-09-07T11:35:51.904Z,15.63
2022-09-07T11:38:29.096Z,10.47
2022-09-07T11:41:17.407Z,12.37
2022-09-07T11:43:49.155Z,15.73
2022-09-07T11:46:26.844Z,11.60
2022-09-07T11:48:57.738Z,10.90
2022-09-07T11:51:36.477Z,11.13
2022-09-07T11:54:18.149Z,10.67
2022-09-07T11:56:51.715Z,12.77
2022-09-07T11:59:36.793Z,10.17
2022-09-07T12:02:58.292Z,12.90
2022-09-07T12:05:43.872Z,15.13
2022-09-07T12:08:22.965Z,15.43
2022-09-07T12:11:00.571Z,14.93
2022-09-07T12:14:05.211Z,11.80
2022-09-07T12:16:47.451Z,11.33
2022-09-07T12:19:20.002Z,15.23
2022-09-07T12:21:57.658Z,15.87
2022-09-07T12:24:41.378Z,12.03
2022-09-07T12:27:37.433Z,12.13
2022-09-07T12:30:44.651Z,18.40
2022-09-07T12:33:28.826Z,12.63
2022-09-07T12:35:59.000Z,13.87
2022-09-07T12:39:04.351Z,12.27
2022-09-07T12:41:47.557Z,15.50
2022-09-07T12:44:28.699Z,14.30
2022-09-07T12:47:00.486Z,14.33
2022-09-07T12:50:14.595Z,13.13
2022-09-07T12:53:20.487Z,21.13
2022-09-07T12:56:15.999Z,16.67
2022-09-07T12:58:56.909Z,17.07
2022-09-07T13:01:37.882Z,21.00
2022-09-07T13:04:28.107Z,15.07
2022-09-07T13:07:36.226Z,18.83
2022-09-07T13:10:17.649Z,26.80
2022-09-07T13:12:53.989Z,19.87
2022-09-07T13:15:45.257Z,32.80
2022-09-07T13:18:43.940Z,33.90
2022-09-07T13:21:35.262Z,25.07
2022-09-07T13:24:46.296Z,31.13
2022-09-07T13:27:44.325Z,24.93
2022-09-07T13:30:38.818Z,30.40
2022-09-07T13:33:52.250Z,21.80
2022-09-07T13:36:32.297Z,21.03
2022-09-07T13:39:01.293Z,17.73
2022-09-07T13:41:36.778Z,16.77
2022-09-07T13:44:05.954Z,15.33
2022-09-07T13:46:48.843Z,15.30
2022-09-07T13:49:29.893Z,19.70
2022-09-07T13:52:08.415Z,13.43
2022-09-07T13:54:53.030Z,13.60
2022-09-07T13:57:28.410Z,9.50
2022-09-07T13:59:57.857Z,16.27
2022-09-07T14:02:29.822Z,10.90
2022-09-07T14:05:00.395Z,13.13
2022-09-07T14:07:31.686Z,8.33
2022-09-07T14:10:11.589Z,13.00
2022-09-07T14:12:44.699Z,10.73
2022-09-07T14:15:22.062Z,9.63
2022-09-07T14:17:54.315Z,8.83
2022-09-07T14:20:23.825Z,12.20
2022-09-07T14:22:54.399Z,16.80
2022-09-07T14:25:23.604Z,9.50
2022-09-07T14:27:52.043Z,11.60
2022-09-07T14:30:27.942Z,7.67
2022-09-07T14:32:58.633Z,11.10
2022-09-07T14:35:28.835Z,13.87
2022-09-07T14:38:06.855Z,15.83
2022-09-07T14:40:36.753Z,10.23
2022-09-07T14:43:05.379Z,22.10
2022-09-07T14:45:35.240Z,11.33
2022-09-07T14:48:14.763Z,13.23
2022-09-07T14:51:05.502Z,8.20
2022-09-07T14:53:39.945Z,9.20
2022-09-07T14:56:11.553Z,12.70
2022-09-07T14:58:40.011Z,13.53
2022-09-07T15:04:19.134Z,9.13
2022-09-07T15:07:03.556Z,12.10
2022-09-07T15:09:39.074Z,13.90
2022-09-07T15:12:24.928Z,23.07
2022-09-07T15:15:11.720Z,14.20
2022-09-07T15:17:43.822Z,22.70
2022-09-07T15:20:38.536Z,13.77
2022-09-07T15:23:10.650Z,17.30
2022-09-07T15:25:42.567Z,17.60
2022-09-07T15:34:01.311Z,19.60
2022-09-07T15:36:32.059Z,13.00
2022-09-07T15:39:01.257Z,18.53
2022-09-07T15:41:31.375Z,12.97
2022-09-07T15:44:00.403Z,18.20
2022-09-07T15:46:29.193Z,15.50
2022-09-07T15:48:58.425Z,12.10
2022-09-07T15:54:17.001Z,16.47
2022-09-07T15:57:48.511Z,15.20
2022-09-07T15:59:35.944Z,18.43
2022-09-07T16:03:04.708Z,20.83
2022-09-07T16:04:53.275Z,17.53
2022-09-07T16:07:22.775Z,16.20
2022-09-07T16:09:52.552Z,42.50
2022-09-07T16:15:12.658Z,14.50
2022-09-07T16:17:47.287Z,14.40
2022-09-07T16:20:16.609Z,13.50
2022-09-07T16:25:36.507Z,14.83
2022-09-07T16:28:07.545Z,15.13
2022-09-07T16:30:39.445Z,20.83
2022-09-07T16:33:08.171Z,11.90
2022-09-07T16:35:36.794Z,20.57
2022-09-07T16:40:53.769Z,14.03
2022-09-07T16:43:23.656Z,22.53
2022-09-07T16:46:03.472Z,16.27
2022-09-07T16:48:33.290Z,22.50
2022-09-07T16:51:02.864Z,26.30
2022-09-07T16:53:36.372Z,28.13
2022-09-07T16:56:05.467Z,19.10
2022-09-07T16:58:37.803Z,17.67
2022-09-07T17:01:06.954Z,17.63
2022-09-07T17:03:35.726Z,19.87
2022-09-07T17:06:05.242Z,21.70
2022-09-07T17:08:35.219Z,18.43
2022-09-07T17:11:05.162Z,21.83
2022-09-07T17:13:36.566Z,16.50
2022-09-07T17:16:06.085Z,18.90
2022-09-07T17:21:23.869Z,25.37
2022-09-07T17:23:55.791Z,22.63
2022-09-07T17:26:27.451Z,22.70
2022-09-07T17:29:00.635Z,20.23
2022-09-07T17:34:20.678Z,24.80
2022-09-07T17:36:49.496Z,25.13
2022-09-07T17:39:19.283Z,21.00
2022-09-07T17:41:48.190Z,32.70
2022-09-07T17:44:18.274Z,25.63
2022-09-07T17:46:46.777Z,26.90
2022-09-07T17:49:16.765Z,22.67
2022-09-07T17:51:46.519Z,20.33
2022-09-07T17:54:17.464Z,23.80
2022-09-07T17:56:46.577Z,22.20
2022-09-07T18:02:05.079Z,28.63
2022-09-07T18:04:35.770Z,28.97
2022-09-07T18:07:04.703Z,24.43
2022-09-07T18:09:33.309Z,26.93
2022-09-07T18:12:01.825Z,24.43
2022-09-07T18:14:31.148Z,22.73
2022-09-07T18:17:00.358Z,17.83
2022-09-07T18:19:30.347Z,33.80
2022-09-07T18:21:59.391Z,19.00
2022-09-07T18:24:28.123Z,23.57
2022-09-07T18:26:56.700Z,18.27
2022-09-07T18:29:29.873Z,17.10
2022-09-07T18:32:01.346Z,17.30
2022-09-07T18:34:32.181Z,19.90
2022-09-07T18:37:01.139Z,16.93
2022-09-07T18:39:29.964Z,15.80
2022-09-07T18:41:58.896Z,19.07
2022-09-07T18:47:22.200Z,18.63
2022-09-07T18:49:57.563Z,22.13
2022-09-07T18:55:15.471Z,16.97
2022-09-07T18:57:44.893Z,17.03
2022-09-07T19:00:14.276Z,19.90
2022-09-07T19:02:43.055Z,19.37
2022-09-07T19:08:03.576Z,17.00
2022-09-07T19:10:35.841Z,19.10
2022-09-07T19:13:04.900Z,15.67
2022-09-07T19:15:37.437Z,18.40
2022-09-07T19:18:07.809Z,14.00
2022-09-07T19:20:38.374Z,22.20
2022-09-07T19:23:06.985Z,21.63
2022-09-07T19:25:35.482Z,16.80
2022-09-07T19:28:04.258Z,19.30
2022-09-07T19:30:34.852Z,21.13
2022-09-07T19:33:04.496Z,16.13
2022-09-07T19:35:37.887Z,16.77
2022-09-07T19:38:06.888Z,35.20
2022-09-07T19:40:35.739Z,22.33
2022-09-07T19:43:04.293Z,15.77
2022-09-07T19:48:32.993Z,17.93
2022-09-07T19:51:07.550Z,15.27
2022-09-07T19:53:37.434Z,19.47
2022-09-07T19:56:07.134Z,28.07
2022-09-07T19:58:36.430Z,14.73
2022-09-07T20:01:09.184Z,17.40
2022-09-07T20:03:37.870Z,19.03
2022-09-07T20:06:09.069Z,18.20
2022-09-07T20:08:38.130Z,16.20
2022-09-07T20:11:08.372Z,23.00
2022-09-07T20:13:37.681Z,24.83
2022-09-07T20:16:07.788Z,18.03
2022-09-07T20:18:36.918Z,20.40
2022-09-07T20:21:08.211Z,17.83
2022-09-07T20:23:37.181Z,19.50
2022-09-07T20:26:07.961Z,26.00
2022-09-07T20:28:37.177Z,22.27
2022-09-07T20:31:08.318Z,19.83
2022-09-07T20:33:37.307Z,19.70
2022-09-07T20:36:09.071Z,20.80
2022-09-07T20:38:41.454Z,20.17
2022-09-07T20:41:14.397Z,24.83
2022-09-07T20:43:42.844Z,22.63
2022-09-07T20:46:11.286Z,24.23
2022-09-07T20:48:40.170Z,28.00
2022-09-07T20:51:13.447Z,25.73
2022-09-07T20:53:42.276Z,23.50
2022-09-07T20:56:14.280Z,26.53
2022-09-07T20:58:43.615Z,27.80
2022-09-07T21:01:12.639Z,35.50
2022-09-07T21:03:43.251Z,25.37
2022-09-07T21:06:16.018Z,33.97
2022-09-07T21:08:46.674Z,27.60
2022-09-07T21:11:16.932Z,28.37
2022-09-07T21:13:46.625Z,28.83
2022-09-07T21:16:16.998Z,32.23
2022-09-07T21:18:45.891Z,30.83
2022-09-07T21:21:20.156Z,31.53
2022-09-07T21:23:49.622Z,31.17
2022-09-07T21:26:21.972Z,33.70
2022-09-07T21:28:54.894Z,34.80
2022-09-07T21:31:23.561Z,26.80
2022-09-07T21:33:55.429Z,34.43
2022-09-07T21:36:26.021Z,28.93
2022-09-07T21:38:55.809Z,27.23
2022-09-07T21:41:25.699Z,29.00
2022-09-07T21:43:56.946Z,35.43
2022-09-07T21:46:26.629Z,34.50
2022-09-07T21:48:56.940Z,29.07
2022-09-07T21:51:28.107Z,34.63
2022-09-07T21:53:58.424Z,28.87
2022-09-07T21:56:28.015Z,38.93
2022-09-07T21:58:57.469Z,31.23
2022-09-07T22:01:28.092Z,30.27
2022-09-07T22:03:59.037Z,37.60
2022-09-07T22:06:29.764Z,30.53
2022-09-07T22:08:58.647Z,33.97
2022-09-07T22:11:28.820Z,41.00
2022-09-07T22:13:59.999Z,32.37
2022-09-07T22:16:28.830Z,33.40
2022-09-07T22:18:57.564Z,32.77
2022-09-07T22:21:29.542Z,38.37
2022-09-07T22:24:00.247Z,37.00
2022-09-07T22:26:30.583Z,31.40
2022-09-07T22:29:00.208Z,35.00
2022-09-07T22:31:30.687Z,27.20
2022-09-07T22:34:00.354Z,27.37
2022-09-07T22:36:32.402Z,28.73
2022-09-07T22:39:02.644Z,35.63
2022-09-07T22:41:33.198Z,31.97
2022-09-07T22:44:02.184Z,29.10
2022-09-07T22:46:35.219Z,28.93
2022-09-07T22:49:03.957Z,38.83
2022-09-07T22:51:33.964Z,34.63
2022-09-07T22:54:02.488Z,34.73
2022-09-07T22:56:32.997Z,28.27
2022-09-07T22:59:03.541Z,32.57
2022-09-07T23:01:33.113Z,31.10
2022-09-07T23:04:02.456Z,35.17
2022-09-07T23:06:34.547Z,29.70
2022-09-07T23:09:07.174Z,31.00
2022-09-07T23:11:35.729Z,32.63
2022-09-07T23:14:06.831Z,32.23
2022-09-07T23:16:35.388Z,34.90
2022-09-07T23:19:03.982Z,29.67
2022-09-07T23:21:33.850Z,37.00
2022-09-07T23:24:03.126Z,29.70
2022-09-07T23:26:33.072Z,35.37
2022-09-07T23:29:03.398Z,31.80
2022-09-07T23:31:33.884Z,33.73
2022-09-07T23:34:02.880Z,40.00
2022-09-07T23:36:33.179Z,28.23
2022-09-07T23:39:01.834Z,33.20
2022-09-07T23:41:30.351Z,34.70
2022-09-07T23:43:59.775Z,30.00
2022-09-07T23:46:28.408Z,37.00
2022-09-07T23:48:56.943Z,34.53
2022-09-07T23:51:25.435Z,40.40
2022-09-07T23:53:55.291Z,44.10
2022-09-07T23:56:24.687Z,36.17
2022-09-07T23:58:53.296Z,34.73
